Jameson, Missouri
Current Conditions -  °F | °C
As of 2:53 PM on Monday 24 Nov 2014 (Local Time) from KLWD Reporting Station
Overcast Overcast  
Wind Chill: -9°   Ceiling: 2500
Heat Index: -2°   Visibility: 10mi
Dew Point: -6°   Wind: 22mph
Humidity: 72%   Direction: 290°WNW
Pressure: 29.76"   Gusts: NA
Location:  40.01°N, 93.98°W
Report Text: KLWD 242053Z AUTO 29019KT 10SM OVC025 M02/M06 A2976 RMK AO2 PK WND 29030/2008 SLP089 60000 T10171061 53031
Loading
Personal Weather Stations






























Interactive Weather Map New forecast layout! Learn more

10-Day Weather Forecast

Advertisements
Track Severe Weather on mobile